Time;durP1;ratioP1;P1;durP2;ratioP2;P2;SDS_P1;SDS_P2;PMS_P1;PMS_P2;Temp;Humidity;BMP_temperature;BMP_pressure;BME280_temperature;BME280_humidity;BME280_pressure;Samples;Min_cycle;Max_cycle;Signal;HPM_P1;HPM_P2
2023/08/22 00:00:28;;;;;;;9.45;7.63;;;;;;;;;;5072333;28;20065;-64
2023/08/22 00:02:56;;;;;;;8.82;7.53;;;;;;;;;;5052418;28;20037;-64
2023/08/22 00:05:23;;;;;;;11.73;8.02;;;;;;;;;;5052370;28;20083;-64
2023/08/22 00:07:51;;;;;;;11.15;8.40;;;;;;;;;;5051989;28;20573;-64
2023/08/22 00:10:18;;;;;;;14.55;8.02;;;;;;;;;;5052343;28;20076;-64
2023/08/22 00:12:46;;;;;;;16.27;8.35;;;;;;;;;;5052362;28;20068;-65
2023/08/22 00:15:14;;;;;;;13.07;8.05;;;;;;;;;;5055312;28;20407;-64
2023/08/22 00:17:41;;;;;;;19.27;8.10;;;;;;;;;;5056388;28;20064;-64
2023/08/22 00:20:13;;;;;;;11.02;8.30;;;;;;;;;;5057332;28;20142;-65
2023/08/22 00:22:42;;;;;;;16.83;8.38;;;;;;;;;;5057567;28;20407;-64
2023/08/22 00:25:10;;;;;;;13.70;8.63;;;;;;;;;;5056535;28;20102;-64
2023/08/22 00:27:38;;;;;;;16.25;9.00;;;;;;;;;;5056225;28;20059;-64
2023/08/22 00:30:07;;;;;;;12.73;8.45;;;;;;;;;;5038090;28;20140;-64
2023/08/22 00:32:34;;;;;;;16.38;8.27;;;;;;;;;;5038208;28;20068;-64
2023/08/22 00:35:02;;;;;;;19.48;8.38;;;;;;;;;;5055992;28;20041;-64
2023/08/22 00:37:30;;;;;;;17.35;8.98;;;;;;;;;;5054514;28;20120;-64
2023/08/22 00:39:58;;;;;;;14.80;9.00;;;;;;;;;;5055702;28;20065;-64
2023/08/22 00:42:25;;;;;;;12.32;8.60;;;;;;;;;;5037925;28;20045;-64
2023/08/22 00:44:55;;;;;;;12.55;8.30;;;;;;;;;;5038022;28;20118;-64
2023/08/22 00:47:23;;;;;;;19.63;8.90;;;;;;;;;;5038220;28;20049;-65
2023/08/22 00:49:51;;;;;;;13.57;8.70;;;;;;;;;;5038070;28;20045;-64
2023/08/22 00:52:21;;;;;;;12.93;8.52;;;;;;;;;;5037924;28;20037;-64
2023/08/22 00:54:49;;;;;;;15.00;9.23;;;;;;;;;;5037903;28;20049;-65
2023/08/22 00:57:17;;;;;;;14.80;8.77;;;;;;;;;;5037846;28;20122;-65
2023/08/22 00:59:44;;;;;;;13.75;8.85;;;;;;;;;;5037552;28;20465;-64
2023/08/22 01:02:14;;;;;;;14.95;9.13;;;;;;;;;;5037580;28;20513;-65
2023/08/22 01:04:43;;;;;;;13.65;8.68;;;;;;;;;;5055489;28;20457;-64
2023/08/22 01:07:37;;;;;;;15.35;8.65;;;;;;;;;;5037493;28;20052;-65
2023/08/22 01:10:08;;;;;;;16.17;8.83;;;;;;;;;;5008158;28;20094;-65
2023/08/22 01:12:38;;;;;;;15.87;8.83;;;;;;;;;;5055422;28;20045;-64
2023/08/22 01:15:26;;;;;;;11.48;8.70;;;;;;;;;;5037495;28;20783;-65
2023/08/22 01:17:55;;;;;;;10.68;8.75;;;;;;;;;;5054261;28;20095;-65
2023/08/22 01:20:24;;;;;;;17.23;8.85;;;;;;;;;;5037268;28;20041;-65
2023/08/22 01:22:52;;;;;;;11.63;9.10;;;;;;;;;;5037578;28;20044;-65
2023/08/22 01:25:20;;;;;;;14.93;9.32;;;;;;;;;;5054809;28;20364;-65
2023/08/22 01:27:53;;;;;;;11.50;8.55;;;;;;;;;;5036960;28;20045;-64
2023/08/22 01:30:30;;;;;;;13.10;9.23;;;;;;;;;;5037033;28;20045;-65
2023/08/22 01:32:59;;;;;;;13.50;9.48;;;;;;;;;;5037407;28;20406;-65
2023/08/22 01:35:27;;;;;;;12.75;9.48;;;;;;;;;;5020464;28;20041;-65
2023/08/22 01:37:55;;;;;;;12.20;9.23;;;;;;;;;;5054928;28;20052;-65
2023/08/22 01:40:24;;;;;;;12.48;8.98;;;;;;;;;;5054891;28;20041;-65
2023/08/22 01:42:51;;;;;;;10.43;8.88;;;;;;;;;;5054698;28;20052;-65
2023/08/22 01:45:19;;;;;;;14.63;9.52;;;;;;;;;;5037021;28;20068;-65
2023/08/22 01:47:49;;;;;;;16.60;9.50;;;;;;;;;;5036790;28;20100;-64
2023/08/22 01:50:16;;;;;;;15.77;9.43;;;;;;;;;;5036718;28;20470;-65
2023/08/22 01:52:44;;;;;;;11.77;9.48;;;;;;;;;;5036822;28;20029;-64
2023/08/22 01:55:13;;;;;;;14.90;8.80;;;;;;;;;;5053505;28;20045;-65
2023/08/22 01:57:41;;;;;;;14.38;9.18;;;;;;;;;;5036663;28;20052;-64
2023/08/22 02:00:09;;;;;;;13.75;9.52;;;;;;;;;;5036659;28;20045;-65
2023/08/22 02:02:39;;;;;;;15.10;9.23;;;;;;;;;;5054679;28;20054;-64
2023/08/22 02:05:07;;;;;;;15.68;10.13;;;;;;;;;;5054345;28;20037;-65
2023/08/22 02:07:35;;;;;;;14.20;9.57;;;;;;;;;;5036389;28;20040;-64
2023/08/22 02:10:06;;;;;;;15.73;10.10;;;;;;;;;;5053003;28;20060;-64
2023/08/22 02:12:34;;;;;;;12.75;9.90;;;;;;;;;;5054187;28;20095;-64
2023/08/22 02:15:02;;;;;;;14.75;10.07;;;;;;;;;;5052945;28;20041;-64
2023/08/22 02:17:30;;;;;;;19.05;10.07;;;;;;;;;;5036224;28;20475;-64
2023/08/22 02:19:58;;;;;;;15.30;9.50;;;;;;;;;;5036247;28;20079;-64
2023/08/22 02:22:25;;;;;;;16.65;10.38;;;;;;;;;;5036084;28;20133;-64
2023/08/22 02:24:53;;;;;;;11.65;9.65;;;;;;;;;;5036174;28;20045;-64
2023/08/22 02:27:20;;;;;;;12.77;9.48;;;;;;;;;;5052686;28;20041;-64
2023/08/22 02:29:48;;;;;;;18.73;10.20;;;;;;;;;;5052492;28;20041;-64
2023/08/22 02:32:15;;;;;;;16.20;10.52;;;;;;;;;;5050448;28;20048;-64
2023/08/22 02:34:43;;;;;;;15.00;9.90;;;;;;;;;;5055856;28;20439;-64
2023/08/22 02:37:10;;;;;;;16.63;10.52;;;;;;;;;;5055174;28;20166;-64
2023/08/22 02:39:38;;;;;;;16.38;10.20;;;;;;;;;;5055468;28;20048;-64
2023/08/22 02:42:05;;;;;;;14.77;11.23;;;;;;;;;;5073690;28;20041;-64
2023/08/22 02:44:33;;;;;;;12.10;10.25;;;;;;;;;;5073570;28;20401;-64
2023/08/22 02:47:00;;;;;;;15.68;10.52;;;;;;;;;;5055816;28;20112;-64
2023/08/22 02:49:28;;;;;;;15.13;10.18;;;;;;;;;;5055559;28;20080;-64
2023/08/22 02:51:55;;;;;;;14.23;10.20;;;;;;;;;;5039705;28;20495;-64
2023/08/22 02:54:23;;;;;;;15.48;11.15;;;;;;;;;;5055379;28;20447;-64
2023/08/22 02:56:51;;;;;;;15.63;11.20;;;;;;;;;;5035719;28;20107;-64
2023/08/22 02:59:20;;;;;;;14.30;10.85;;;;;;;;;;5035547;28;20045;-64
2023/08/22 03:01:47;;;;;;;14.90;10.38;;;;;;;;;;5040996;28;20458;-64
2023/08/22 03:04:15;;;;;;;14.02;11.02;;;;;;;;;;5073364;28;20389;-64
2023/08/22 03:06:43;;;;;;;16.85;11.00;;;;;;;;;;5055066;28;20045;-64
2023/08/22 03:09:11;;;;;;;15.80;10.98;;;;;;;;;;5041714;28;20064;-64
2023/08/22 03:11:38;;;;;;;16.05;11.30;;;;;;;;;;5035446;28;20125;-64
2023/08/22 03:14:07;;;;;;;12.18;10.82;;;;;;;;;;5035217;28;20051;-64
2023/08/22 03:16:35;;;;;;;14.38;10.70;;;;;;;;;;5043397;28;20036;-64
2023/08/22 03:19:03;;;;;;;14.52;11.63;;;;;;;;;;5055048;28;20150;-64
2023/08/22 03:21:31;;;;;;;15.10;11.65;;;;;;;;;;5054981;28;20044;-64
2023/08/22 03:23:59;;;;;;;16.80;11.55;;;;;;;;;;5054896;28;20051;-64
2023/08/22 03:26:26;;;;;;;12.10;10.60;;;;;;;;;;5054544;28;20086;-64
2023/08/22 03:28:54;;;;;;;12.70;10.93;;;;;;;;;;5071119;28;20072;-65
2023/08/22 03:31:22;;;;;;;12.95;11.55;;;;;;;;;;5054521;28;20135;-65
2023/08/22 03:33:50;;;;;;;16.48;12.35;;;;;;;;;;5054447;28;20486;-64
2023/08/22 03:36:18;;;;;;;15.43;12.13;;;;;;;;;;5054745;28;20573;-65
2023/08/22 03:38:48;;;;;;;17.17;12.10;;;;;;;;;;5046731;28;20045;-64
2023/08/22 03:41:15;;;;;;;17.63;11.55;;;;;;;;;;5036083;28;20045;-65
2023/08/22 03:43:43;;;;;;;16.23;12.02;;;;;;;;;;5065304;28;20421;-64
2023/08/22 03:46:10;;;;;;;18.58;12.38;;;;;;;;;;5054557;28;20040;-64
2023/08/22 03:48:43;;;;;;;18.15;12.57;;;;;;;;;;5071309;28;20159;-65
2023/08/22 03:51:11;;;;;;;19.75;12.55;;;;;;;;;;5048437;28;20041;-64
2023/08/22 03:53:39;;;;;;;17.63;12.02;;;;;;;;;;5034719;28;20036;-64
2023/08/22 03:56:07;;;;;;;16.48;11.80;;;;;;;;;;5035434;28;20052;-64
2023/08/22 03:58:35;;;;;;;17.00;12.00;;;;;;;;;;5043614;28;20406;-64
2023/08/22 04:01:03;;;;;;;20.23;11.73;;;;;;;;;;5052218;28;20055;-64
2023/08/22 04:03:31;;;;;;;24.15;12.63;;;;;;;;;;5054797;28;20064;-64
2023/08/22 04:05:59;;;;;;;22.23;12.73;;;;;;;;;;5054076;28;20139;-64
2023/08/22 04:08:28;;;;;;;26.42;13.50;;;;;;;;;;5054453;28;20620;-64
2023/08/22 04:10:56;;;;;;;32.05;13.50;;;;;;;;;;5054334;28;20406;-64
2023/08/22 04:13:23;;;;;;;33.25;13.68;;;;;;;;;;5052786;28;20068;-64
2023/08/22 04:15:51;;;;;;;24.17;13.73;;;;;;;;;;5047969;28;20052;-64
2023/08/22 04:18:19;;;;;;;32.15;13.73;;;;;;;;;;5063799;28;20048;-64
2023/08/22 04:20:47;;;;;;;23.85;13.40;;;;;;;;;;5034134;28;20041;-64
2023/08/22 04:23:14;;;;;;;27.38;14.10;;;;;;;;;;5034330;28;20124;-64
2023/08/22 04:25:42;;;;;;;27.55;14.02;;;;;;;;;;5034509;28;20398;-65
2023/08/22 04:28:10;;;;;;;23.30;13.90;;;;;;;;;;5034477;28;20041;-65
2023/08/22 04:30:38;;;;;;;25.02;13.95;;;;;;;;;;5034267;28;20049;-65
2023/08/22 04:33:05;;;;;;;28.60;13.52;;;;;;;;;;5034477;28;20047;-65
2023/08/22 04:35:33;;;;;;;30.75;14.68;;;;;;;;;;5035561;28;20136;-65
2023/08/22 04:38:01;;;;;;;26.25;13.35;;;;;;;;;;5034233;28;20095;-64
2023/08/22 04:40:29;;;;;;;23.92;13.07;;;;;;;;;;5036200;28;20052;-64
2023/08/22 04:43:03;;;;;;;21.60;13.25;;;;;;;;;;5036839;28;20132;-64
2023/08/22 04:45:30;;;;;;;22.95;12.95;;;;;;;;;;5034078;28;20045;-64
2023/08/22 04:47:58;;;;;;;18.60;12.93;;;;;;;;;;5048637;28;20043;-64
2023/08/22 04:50:26;;;;;;;21.08;13.13;;;;;;;;;;5053627;28;20052;-64
2023/08/22 04:52:53;;;;;;;21.65;12.90;;;;;;;;;;5053646;28;20418;-64
2023/08/22 04:55:23;;;;;;;23.30;12.98;;;;;;;;;;5053926;28;20051;-64
2023/08/22 04:57:50;;;;;;;27.42;13.15;;;;;;;;;;5053990;28;20044;-63
2023/08/22 05:00:18;;;;;;;18.85;13.10;;;;;;;;;;5054121;28;20102;-64
2023/08/22 05:02:46;;;;;;;19.67;13.60;;;;;;;;;;5057557;28;20044;-64
2023/08/22 05:05:14;;;;;;;23.05;13.35;;;;;;;;;;5075511;28;20567;-64
2023/08/22 05:07:41;;;;;;;24.92;14.07;;;;;;;;;;5057423;28;20136;-64
2023/08/22 05:10:10;;;;;;;20.27;13.15;;;;;;;;;;5057478;28;20047;-64
2023/08/22 05:12:37;;;;;;;20.38;13.25;;;;;;;;;;5057413;28;20048;-64
2023/08/22 05:15:06;;;;;;;21.60;12.90;;;;;;;;;;5057665;28;20044;-64
2023/08/22 05:17:37;;;;;;;22.08;12.43;;;;;;;;;;5057381;28;20139;-64
2023/08/22 05:20:10;;;;;;;16.67;12.23;;;;;;;;;;5057235;28;20045;-64
2023/08/22 05:22:37;;;;;;;19.80;11.63;;;;;;;;;;5057396;28;20136;-64
2023/08/22 05:25:05;;;;;;;21.48;12.25;;;;;;;;;;5057299;28;20036;-64
2023/08/22 05:27:33;;;;;;;19.70;12.55;;;;;;;;;;5057083;28;20052;-64
2023/08/22 05:30:02;;;;;;;17.13;11.40;;;;;;;;;;5057152;28;20048;-64
2023/08/22 05:32:30;;;;;;;15.48;11.23;;;;;;;;;;5056956;28;20131;-64
2023/08/22 05:34:58;;;;;;;16.98;11.18;;;;;;;;;;5057149;28;20040;-64
2023/08/22 05:37:26;;;;;;;18.45;11.20;;;;;;;;;;5057051;28;20083;-64
2023/08/22 05:39:53;;;;;;;18.77;11.05;;;;;;;;;;5074789;28;20040;-64
2023/08/22 05:42:21;;;;;;;13.65;11.35;;;;;;;;;;5057086;28;20441;-64
2023/08/22 05:44:48;;;;;;;13.50;10.93;;;;;;;;;;5056879;28;20051;-64
2023/08/22 05:47:16;;;;;;;16.13;11.55;;;;;;;;;;5056891;28;20068;-64
2023/08/22 05:49:44;;;;;;;16.55;12.18;;;;;;;;;;5056953;28;20089;-64
2023/08/22 05:52:12;;;;;;;16.02;11.07;;;;;;;;;;5056789;28;20308;-64
2023/08/22 05:54:41;;;;;;;17.60;11.55;;;;;;;;;;5056888;28;20403;-64
2023/08/22 05:57:09;;;;;;;17.83;11.65;;;;;;;;;;5056896;28;20037;-64
2023/08/22 05:59:37;;;;;;;13.70;11.82;;;;;;;;;;5056603;28;20102;-64
2023/08/22 06:02:05;;;;;;;13.23;10.98;;;;;;;;;;5056340;28;20514;-64
2023/08/22 06:04:32;;;;;;;15.55;11.45;;;;;;;;;;5074704;28;20045;-64
2023/08/22 06:07:00;;;;;;;14.70;10.75;;;;;;;;;;5056427;28;20041;-64
2023/08/22 06:09:28;;;;;;;12.80;11.10;;;;;;;;;;5056664;28;20048;-64
2023/08/22 06:11:55;;;;;;;20.13;10.88;;;;;;;;;;5056174;28;20044;-64
2023/08/22 06:14:23;;;;;;;17.88;11.90;;;;;;;;;;5056514;28;20052;-65
2023/08/22 06:16:51;;;;;;;15.35;10.82;;;;;;;;;;5056225;28;20131;-64
2023/08/22 06:19:19;;;;;;;14.75;11.60;;;;;;;;;;5056269;28;20055;-64
2023/08/22 06:21:47;;;;;;;15.70;12.00;;;;;;;;;;5056488;28;20040;-64
2023/08/22 06:24:14;;;;;;;14.30;11.75;;;;;;;;;;5056210;28;20098;-64
2023/08/22 06:26:42;;;;;;;15.65;12.60;;;;;;;;;;5056546;28;20498;-64
2023/08/22 06:29:10;;;;;;;12.85;11.52;;;;;;;;;;5056204;28;20037;-64
2023/08/22 06:31:38;;;;;;;15.20;11.82;;;;;;;;;;5039528;28;20060;-64
2023/08/22 06:34:06;;;;;;;20.70;16.08;;;;;;;;;;5056182;28;20040;-64
2023/08/22 06:36:33;;;;;;;16.02;12.05;;;;;;;;;;5056013;28;20056;-63
2023/08/22 06:39:03;;;;;;;21.10;12.57;;;;;;;;;;5056108;28;20067;-64
2023/08/22 06:41:31;;;;;;;16.60;12.25;;;;;;;;;;5055788;28;20405;-64
2023/08/22 06:44:07;;;;;;;15.43;12.05;;;;;;;;;;5055975;28;20478;-64
2023/08/22 06:46:35;;;;;;;14.13;11.13;;;;;;;;;;5055892;28;20387;-64
2023/08/22 06:49:03;;;;;;;18.77;11.38;;;;;;;;;;5055723;28;20075;-64
2023/08/22 06:51:32;;;;;;;14.50;10.57;;;;;;;;;;5055675;28;20044;-64
2023/08/22 06:53:59;;;;;;;13.48;11.48;;;;;;;;;;5073633;28;20470;-64
2023/08/22 06:56:27;;;;;;;15.80;10.60;;;;;;;;;;5073597;28;20049;-63
2023/08/22 06:58:54;;;;;;;13.10;10.77;;;;;;;;;;5055274;28;20386;-64
2023/08/22 07:01:22;;;;;;;12.38;10.82;;;;;;;;;;5073095;28;20463;-64
2023/08/22 07:03:50;;;;;;;14.32;11.02;;;;;;;;;;5055670;28;20033;-64
2023/08/22 07:06:28;;;;;;;16.45;10.90;;;;;;;;;;5073453;28;20076;-64
2023/08/22 07:08:56;;;;;;;12.52;10.63;;;;;;;;;;5073163;28;20114;-64
2023/08/22 07:11:24;;;;;;;12.68;10.48;;;;;;;;;;5073158;28;20055;-64
2023/08/22 07:13:51;;;;;;;11.27;10.25;;;;;;;;;;5072996;28;20041;-64
2023/08/22 07:16:19;;;;;;;12.60;11.05;;;;;;;;;;5073382;28;20141;-64
2023/08/22 07:18:46;;;;;;;12.65;10.88;;;;;;;;;;5072969;28;20473;-64
2023/08/22 07:21:14;;;;;;;12.82;10.65;;;;;;;;;;5073049;28;20048;-63
2023/08/22 07:23:42;;;;;;;13.02;10.80;;;;;;;;;;5072197;28;20036;-63
2023/08/22 07:26:09;;;;;;;11.63;10.52;;;;;;;;;;5072822;28;20036;-63
2023/08/22 07:28:37;;;;;;;13.38;11.23;;;;;;;;;;5072759;28;20120;-63
2023/08/22 07:31:04;;;;;;;13.23;11.40;;;;;;;;;;5072787;28;20041;-63
2023/08/22 07:33:32;;;;;;;12.80;11.18;;;;;;;;;;5072803;28;20048;-63
2023/08/22 07:36:01;;;;;;;16.10;14.43;;;;;;;;;;5072849;28;20040;-63
2023/08/22 07:38:29;;;;;;;14.30;11.75;;;;;;;;;;5072604;28;20036;-63
2023/08/22 07:40:57;;;;;;;12.10;10.55;;;;;;;;;;5072739;28;20293;-63
2023/08/22 07:43:24;;;;;;;16.73;11.50;;;;;;;;;;5072856;28;20417;-63
2023/08/22 07:45:52;;;;;;;11.48;10.07;;;;;;;;;;5072707;28;20048;-64
2023/08/22 07:48:19;;;;;;;11.02;9.90;;;;;;;;;;5072538;28;20394;-63
2023/08/22 07:50:47;;;;;;;13.80;10.43;;;;;;;;;;5064738;28;20041;-63
2023/08/22 07:53:14;;;;;;;12.30;10.25;;;;;;;;;;5062794;28;20394;-63
2023/08/22 07:55:42;;;;;;;10.80;9.60;;;;;;;;;;5071283;28;20127;-63
2023/08/22 07:58:09;;;;;;;11.18;9.93;;;;;;;;;;5054605;28;20044;-63
2023/08/22 08:00:37;;;;;;;10.73;9.73;;;;;;;;;;5072144;28;20064;-63
2023/08/22 08:03:05;;;;;;;10.93;9.82;;;;;;;;;;5071578;28;20115;-63
2023/08/22 08:05:33;;;;;;;15.88;10.50;;;;;;;;;;5054456;28;20076;-63
2023/08/22 08:08:01;;;;;;;15.43;9.50;;;;;;;;;;5072296;28;20080;-63
2023/08/22 08:10:28;;;;;;;10.70;9.70;;;;;;;;;;5072281;28;20072;-63
2023/08/22 08:12:56;;;;;;;10.63;9.52;;;;;;;;;;5054349;28;20044;-64
2023/08/22 08:15:23;;;;;;;14.40;9.82;;;;;;;;;;5072634;28;20504;-63
2023/08/22 08:17:51;;;;;;;10.75;9.48;;;;;;;;;;5072274;28;20048;-63
2023/08/22 08:20:18;;;;;;;11.30;9.52;;;;;;;;;;5072360;28;20045;-63
2023/08/22 08:22:46;;;;;;;12.88;9.80;;;;;;;;;;5072132;28;20090;-63
2023/08/22 08:25:14;;;;;;;9.80;8.40;;;;;;;;;;5072458;28;20048;-63
2023/08/22 08:27:41;;;;;;;10.05;9.00;;;;;;;;;;5072433;28;20075;-63
2023/08/22 08:30:10;;;;;;;38.15;34.30;;;;;;;;;;5072153;28;20076;-63
2023/08/22 08:32:37;;;;;;;9.85;8.23;;;;;;;;;;5072191;28;20052;-63
2023/08/22 08:35:06;;;;;;;22.13;19.70;;;;;;;;;;5072307;28;20037;-63
2023/08/22 08:37:34;;;;;;;9.35;8.45;;;;;;;;;;5075430;28;20037;-63
2023/08/22 08:40:04;;;;;;;15.13;10.57;;;;;;;;;;5076002;28;20033;-63
2023/08/22 08:42:34;;;;;;;9.38;8.02;;;;;;;;;;5058564;28;20048;-63
2023/08/22 08:45:02;;;;;;;8.85;7.85;;;;;;;;;;5076097;28;20119;-63
2023/08/22 08:47:31;;;;;;;9.55;7.85;;;;;;;;;;5075801;28;20267;-63
2023/08/22 08:50:00;;;;;;;9.07;7.90;;;;;;;;;;5075777;28;20032;-63
2023/08/22 08:52:28;;;;;;;12.05;8.70;;;;;;;;;;5075747;28;20080;-63
2023/08/22 08:54:57;;;;;;;9.43;8.35;;;;;;;;;;5075753;28;20036;-63
2023/08/22 08:57:26;;;;;;;10.40;7.68;;;;;;;;;;5075590;28;20047;-63
2023/08/22 08:59:54;;;;;;;12.70;9.40;;;;;;;;;;5075323;28;20037;-65
2023/08/22 09:02:21;;;;;;;12.40;11.15;;;;;;;;;;5075904;28;20109;-63
2023/08/22 09:04:49;;;;;;;9.05;7.85;;;;;;;;;;5075483;28;20037;-63
2023/08/22 09:07:20;;;;;;;11.95;8.27;;;;;;;;;;5075759;28;20044;-63
2023/08/22 09:09:48;;;;;;;9.38;8.15;;;;;;;;;;5075383;28;20059;-63
2023/08/22 09:12:15;;;;;;;10.68;7.57;;;;;;;;;;5075317;28;20106;-62
2023/08/22 09:14:49;;;;;;;10.27;7.53;;;;;;;;;;5075306;28;20044;-63
2023/08/22 09:17:16;;;;;;;;;;;;;;;;;;5075765;28;20090;-63
2023/08/22 09:19:45;;;;;;;9.35;7.60;;;;;;;;;;5075231;28;19928;-63
2023/08/22 09:22:13;;;;;;;10.30;7.30;;;;;;;;;;5075194;28;20079;-63
2023/08/22 09:24:50;;;;;;;8.07;7.28;;;;;;;;;;5075121;28;20036;-63
2023/08/22 09:27:21;;;;;;;8.85;7.22;;;;;;;;;;5075003;28;20043;-63
2023/08/22 09:29:49;;;;;;;9.02;7.68;;;;;;;;;;5075004;28;20082;-63
2023/08/22 09:32:20;;;;;;;9.68;8.38;;;;;;;;;;5074943;28;20060;-63
2023/08/22 09:34:58;;;;;;;12.18;10.88;;;;;;;;;;5075060;28;20044;-63
2023/08/22 09:37:36;;;;;;;10.43;8.55;;;;;;;;;;5074886;28;20048;-63
2023/08/22 09:40:08;;;;;;;11.45;7.93;;;;;;;;;;5074767;28;20036;-63
2023/08/22 09:42:41;;;;;;;9.80;7.13;;;;;;;;;;5056875;28;20465;-63
2023/08/22 09:45:10;;;;;;;10.60;7.25;;;;;;;;;;5074720;28;20490;-63
2023/08/22 09:47:40;;;;;;;10.55;7.25;;;;;;;;;;5074078;28;20052;-63
2023/08/22 09:50:10;;;;;;;7.18;6.47;;;;;;;;;;5074678;28;20126;-63
2023/08/22 09:52:40;;;;;;;9.65;7.32;;;;;;;;;;5074428;28;20044;-63
2023/08/22 09:55:08;;;;;;;11.70;7.90;;;;;;;;;;5056906;28;20127;-63
2023/08/22 09:57:36;;;;;;;9.43;7.65;;;;;;;;;;5074231;28;20052;-63
2023/08/22 10:00:05;;;;;;;14.50;7.60;;;;;;;;;;5074492;28;20502;-63
2023/08/22 10:02:40;;;;;;;9.45;7.03;;;;;;;;;;5074666;28;20044;-63
2023/08/22 10:05:10;;;;;;;10.07;8.85;;;;;;;;;;5074155;28;20048;-63
2023/08/22 10:07:39;;;;;;;11.20;7.80;;;;;;;;;;5074318;28;20037;-63
2023/08/22 10:10:07;;;;;;;9.30;6.88;;;;;;;;;;5074417;28;20098;-63
2023/08/22 10:12:35;;;;;;;9.27;7.65;;;;;;;;;;5074082;28;20071;-62
2023/08/22 10:15:06;;;;;;;10.43;7.55;;;;;;;;;;5074205;28;20071;-63
2023/08/22 10:17:34;;;;;;;9.43;7.30;;;;;;;;;;5074264;28;20059;-63
2023/08/22 10:20:07;;;;;;;11.80;7.07;;;;;;;;;;5074174;28;20114;-63
2023/08/22 10:22:35;;;;;;;9.13;7.82;;;;;;;;;;5074055;28;20070;-63
2023/08/22 10:25:04;;;;;;;10.98;7.13;;;;;;;;;;5073906;28;20111;-63
2023/08/22 10:27:32;;;;;;;9.40;7.47;;;;;;;;;;5073787;28;20467;-63
2023/08/22 10:30:15;;;;;;;11.70;7.18;;;;;;;;;;5073830;28;20033;-63
2023/08/22 10:33:02;;;;;;;8.02;7.22;;;;;;;;;;5074200;28;20041;-64
2023/08/22 10:35:32;;;;;;;9.23;6.88;;;;;;;;;;5073794;28;20474;-64
2023/08/22 10:38:00;;;;;;;10.93;7.47;;;;;;;;;;5073500;28;20048;-64
2023/08/22 10:40:27;;;;;;;7.97;7.07;;;;;;;;;;5074004;28;20447;-64
2023/08/22 10:43:24;;;;;;;8.75;6.88;;;;;;;;;;5073485;28;20041;-64
2023/08/22 10:45:52;;;;;;;10.55;7.88;;;;;;;;;;5046556;28;20044;-63
2023/08/22 10:48:21;;;;;;;9.57;7.25;;;;;;;;;;5073541;28;20037;-63
2023/08/22 10:50:50;;;;;;;10.30;7.15;;;;;;;;;;5073333;28;20402;-64
2023/08/22 10:53:25;;;;;;;11.02;7.60;;;;;;;;;;5073546;28;20072;-63
2023/08/22 10:55:53;;;;;;;11.05;7.15;;;;;;;;;;5055524;28;20494;-64
2023/08/22 10:58:34;;;;;;;11.68;7.38;;;;;;;;;;5072667;28;20044;-64
2023/08/22 11:01:02;;;;;;;10.40;6.80;;;;;;;;;;5073123;28;20040;-65
2023/08/22 11:03:31;;;;;;;9.27;8.05;;;;;;;;;;5073130;28;20138;-64
2023/08/22 11:05:59;;;;;;;8.98;7.38;;;;;;;;;;5073202;28;20124;-64
2023/08/22 11:08:26;;;;;;;11.50;7.93;;;;;;;;;;5073034;28;20059;-64
2023/08/22 11:10:58;;;;;;;8.30;6.93;;;;;;;;;;5073055;28;20107;-64
2023/08/22 11:13:35;;;;;;;10.35;6.93;;;;;;;;;;5073152;28;20044;-64
2023/08/22 11:16:03;;;;;;;8.55;7.40;;;;;;;;;;5072850;28;20509;-65
2023/08/22 11:18:31;;;;;;;15.90;7.53;;;;;;;;;;5055335;28;20044;-64
2023/08/22 11:20:58;;;;;;;16.92;7.57;;;;;;;;;;5072918;28;20120;-65
2023/08/22 11:23:26;;;;;;;8.25;6.82;;;;;;;;;;5072722;28;20044;-64
2023/08/22 11:25:53;;;;;;;8.30;6.78;;;;;;;;;;5072649;28;20075;-64
2023/08/22 11:28:29;;;;;;;10.80;7.63;;;;;;;;;;5073203;28;20390;-64
2023/08/22 11:30:57;;;;;;;9.40;7.07;;;;;;;;;;5072787;28;20040;-64
2023/08/22 11:33:25;;;;;;;8.82;7.15;;;;;;;;;;5072661;28;20098;-64
2023/08/22 11:35:52;;;;;;;14.68;11.13;;;;;;;;;;5072529;28;20044;-64
2023/08/22 11:38:21;;;;;;;13.00;9.07;;;;;;;;;;5073163;28;20041;-64
2023/08/22 11:40:48;;;;;;;9.80;7.35;;;;;;;;;;5072729;28;20053;-64
2023/08/22 11:43:16;;;;;;;13.23;8.10;;;;;;;;;;5072965;28;20450;-64
2023/08/22 11:45:47;;;;;;;10.25;8.07;;;;;;;;;;5072463;28;20098;-64
2023/08/22 11:48:16;;;;;;;10.43;7.50;;;;;;;;;;5072816;28;20028;-64
2023/08/22 11:50:44;;;;;;;9.63;6.93;;;;;;;;;;5072657;28;20052;-64
2023/08/22 11:53:12;;;;;;;14.48;6.80;;;;;;;;;;5072374;28;20040;-64
2023/08/22 11:55:43;;;;;;;8.23;6.50;;;;;;;;;;5072471;28;20040;-64
2023/08/22 11:58:16;;;;;;;10.80;7.05;;;;;;;;;;5072436;28;20124;-64
2023/08/22 12:00:44;;;;;;;10.98;7.00;;;;;;;;;;5072415;28;20044;-64
2023/08/22 12:03:13;;;;;;;9.05;7.15;;;;;;;;;;5072462;28;20070;-64
2023/08/22 12:05:44;;;;;;;10.27;7.63;;;;;;;;;;5072546;28;20086;-64
2023/08/22 12:08:11;;;;;;;7.88;6.57;;;;;;;;;;5072297;28;20109;-64
2023/08/22 12:10:42;;;;;;;11.23;7.65;;;;;;;;;;5074370;28;20036;-64
2023/08/22 12:13:10;;;;;;;10.52;7.20;;;;;;;;;;5076461;28;20128;-64
2023/08/22 12:15:38;;;;;;;12.57;7.22;;;;;;;;;;5076428;28;20040;-64
2023/08/22 12:18:09;;;;;;;8.23;7.35;;;;;;;;;;5076837;28;20106;-64
2023/08/22 12:20:38;;;;;;;9.82;7.10;;;;;;;;;;5076629;28;20055;-64
2023/08/22 12:23:07;;;;;;;11.85;7.60;;;;;;;;;;5076429;28;20115;-64
2023/08/22 12:25:35;;;;;;;7.80;7.07;;;;;;;;;;5076312;28;20049;-64
2023/08/22 12:28:03;;;;;;;8.68;6.95;;;;;;;;;;5076495;28;20437;-64
2023/08/22 12:30:33;;;;;;;10.75;7.60;;;;;;;;;;5076220;28;20048;-64
2023/08/22 12:33:02;;;;;;;8.70;7.28;;;;;;;;;;5076331;28;20044;-64
2023/08/22 12:35:32;;;;;;;8.15;6.90;;;;;;;;;;5076241;28;20040;-64
2023/08/22 12:37:59;;;;;;;9.38;7.07;;;;;;;;;;5076336;28;20048;-64
2023/08/22 12:40:27;;;;;;;9.10;6.78;;;;;;;;;;5076281;28;20475;-65
2023/08/22 12:42:55;;;;;;;11.13;7.07;;;;;;;;;;5075972;28;20059;-64
2023/08/22 12:45:23;;;;;;;9.07;6.85;;;;;;;;;;5075912;28;20063;-64
2023/08/22 12:47:50;;;;;;;8.48;7.25;;;;;;;;;;5076095;28;20033;-64
2023/08/22 12:50:18;;;;;;;9.93;7.15;;;;;;;;;;5075916;28;20047;-64
2023/08/22 12:52:45;;;;;;;11.07;7.10;;;;;;;;;;5075783;28;20067;-64
2023/08/22 12:55:17;;;;;;;9.02;6.85;;;;;;;;;;5075628;28;20486;-64
2023/08/22 12:57:44;;;;;;;8.45;7.15;;;;;;;;;;5075593;28;20052;-63
2023/08/22 13:00:12;;;;;;;11.88;7.32;;;;;;;;;;5066620;28;20099;-64
2023/08/22 13:02:41;;;;;;;7.65;6.72;;;;;;;;;;5055601;28;20053;-64
2023/08/22 13:05:09;;;;;;;8.77;7.00;;;;;;;;;;5057331;28;20125;-64
2023/08/22 13:07:36;;;;;;;8.77;7.13;;;;;;;;;;5037468;28;20422;-64
2023/08/22 13:10:04;;;;;;;11.35;6.82;;;;;;;;;;5058294;28;20037;-64
2023/08/22 13:12:34;;;;;;;10.02;7.15;;;;;;;;;;5059916;28;20490;-64
2023/08/22 13:15:03;;;;;;;10.18;7.13;;;;;;;;;;5062411;28;20033;-64
2023/08/22 13:17:30;;;;;;;8.93;6.85;;;;;;;;;;5061901;28;20047;-64
2023/08/22 13:19:58;;;;;;;10.05;6.72;;;;;;;;;;5059552;28;20045;-64
2023/08/22 13:22:26;;;;;;;10.02;7.63;;;;;;;;;;5066017;28;20037;-64
2023/08/22 13:24:53;;;;;;;13.30;7.78;;;;;;;;;;5063906;28;20111;-64
2023/08/22 13:27:21;;;;;;;7.60;6.80;;;;;;;;;;5050105;28;20094;-63
2023/08/22 13:29:49;;;;;;;10.35;7.15;;;;;;;;;;5055268;28;20033;-64
2023/08/22 13:32:16;;;;;;;9.80;7.40;;;;;;;;;;5057426;28;20040;-64
2023/08/22 13:34:44;;;;;;;10.25;7.40;;;;;;;;;;5055018;28;20083;-64
2023/08/22 13:37:11;;;;;;;9.50;8.07;;;;;;;;;;5054797;28;20045;-63
2023/08/22 13:39:39;;;;;;;7.82;6.97;;;;;;;;;;5055243;28;20051;-64
2023/08/22 13:42:06;;;;;;;14.80;7.05;;;;;;;;;;5056080;28;20049;-64
2023/08/22 13:44:34;;;;;;;10.85;7.60;;;;;;;;;;5074567;28;20036;-63
2023/08/22 13:47:02;;;;;;;8.15;7.35;;;;;;;;;;5074545;28;20051;-64
2023/08/22 13:49:30;;;;;;;15.38;7.85;;;;;;;;;;5074699;28;20043;-64
2023/08/22 13:51:57;;;;;;;8.40;6.63;;;;;;;;;;5074534;28;20033;-64
2023/08/22 13:54:25;;;;;;;11.00;6.78;;;;;;;;;;5074423;28;20078;-64
2023/08/22 13:56:52;;;;;;;9.32;6.90;;;;;;;;;;5074595;28;20040;-64
2023/08/22 13:59:20;;;;;;;8.35;6.95;;;;;;;;;;5074790;28;20049;-64
2023/08/22 14:01:48;;;;;;;9.02;6.65;;;;;;;;;;5074441;28;20053;-64
2023/08/22 14:04:19;;;;;;;6.75;6.07;;;;;;;;;;5074466;28;20119;-64
2023/08/22 14:06:48;;;;;;;9.82;6.75;;;;;;;;;;5074881;28;20398;-64
2023/08/22 14:09:15;;;;;;;9.32;6.30;;;;;;;;;;5074347;28;20542;-64
2023/08/22 14:11:53;;;;;;;7.18;6.50;;;;;;;;;;5074229;28;20040;-64
2023/08/22 14:14:21;;;;;;;7.47;6.75;;;;;;;;;;5074238;28;20033;-64
2023/08/22 14:16:49;;;;;;;9.77;7.15;;;;;;;;;;5074227;28;20071;-64
2023/08/22 14:19:17;;;;;;;7.25;5.85;;;;;;;;;;5070823;28;20106;-65
2023/08/22 14:21:44;;;;;;;9.52;6.78;;;;;;;;;;5055527;28;20115;-64
2023/08/22 14:24:15;;;;;;;7.82;6.22;;;;;;;;;;5062020;28;20709;-65
2023/08/22 14:26:43;;;;;;;7.65;6.85;;;;;;;;;;5067184;28;20048;-64
2023/08/22 14:29:11;;;;;;;9.85;6.93;;;;;;;;;;5060432;28;20520;-65
2023/08/22 14:31:39;;;;;;;7.55;6.75;;;;;;;;;;5060848;28;20036;-64
2023/08/22 14:34:08;;;;;;;7.93;7.05;;;;;;;;;;5067523;28;20044;-64
2023/08/22 14:36:36;;;;;;;11.95;7.20;;;;;;;;;;5050359;28;20037;-64